Time;durP1;ratioP1;P1;durP2;ratioP2;P2;SDS_P1;SDS_P2;PMS_P1;PMS_P2;Temp;Humidity;BMP_temperature;BMP_pressure;BME280_temperature;BME280_humidity;BME280_pressure;Samples;Min_cycle;Max_cycle;Signal;HPM_P1;HPM_P2
2023/04/25 00:00:18;;;;;;;28.42;22.37;;;28.10;99.90;;;;;;1743171;81;21636;-82
2023/04/25 00:02:51;;;;;;;29.82;22.37;;;28.10;99.70;;;;;;1761066;80;21311;-83
2023/04/25 00:05:27;;;;;;;33.18;22.70;;;28.20;99.60;;;;;;1794437;80;21182;-84
2023/04/25 00:07:59;;;;;;;31.55;23.07;;;28.20;99.50;;;;;;1780278;80;21728;-83
2023/04/25 00:10:30;;;;;;;33.15;25.68;;;28.20;99.50;;;;;;1778141;80;21224;-82
2023/04/25 00:13:02;;;;;;;35.05;26.05;;;28.30;99.40;;;;;;1786286;80;21178;-83
2023/04/25 00:15:34;;;;;;;41.33;27.58;;;28.30;99.40;;;;;;1759815;80;21227;-82
2023/04/25 00:18:06;;;;;;;32.63;26.12;;;28.40;99.40;;;;;;1783065;80;21667;-82
2023/04/25 00:20:37;;;;;;;30.75;24.05;;;28.40;99.30;;;;;;1768221;80;21679;-82
2023/04/25 00:23:08;;;;;;;34.80;26.42;;;28.40;99.10;;;;;;1740288;81;21827;-81
2023/04/25 00:25:39;;;;;;;46.00;32.08;;;28.50;99.10;;;;;;1757455;81;21221;-81
2023/04/25 00:28:10;;;;;;;36.53;28.23;;;28.50;99.10;;;;;;1761560;81;21173;-80
2023/04/25 00:30:42;;;;;;;39.13;29.90;;;28.50;98.80;;;;;;1776062;80;21503;-81
2023/04/25 00:33:13;;;;;;;42.50;31.35;;;28.60;98.80;;;;;;1766825;80;21103;-81
2023/04/25 00:35:44;;;;;;;39.98;29.15;;;28.60;98.70;;;;;;1771665;80;21720;-81
2023/04/25 00:38:15;;;;;;;44.10;28.73;;;28.60;98.70;;;;;;1777165;80;21174;-81
2023/04/25 00:40:46;;;;;;;31.52;24.70;;;28.70;98.60;;;;;;1781853;80;21681;-81
2023/04/25 00:43:17;;;;;;;29.23;22.50;;;28.80;98.50;;;;;;1769764;80;21217;-82
2023/04/25 00:45:50;;;;;;;30.48;22.77;;;28.80;98.40;;;;;;1773493;80;21120;-81
2023/04/25 00:48:23;;;;;;;28.42;22.87;;;28.90;98.30;;;;;;1763584;80;21171;-83
2023/04/25 00:51:01;;;;;;;28.73;22.65;;;28.90;98.20;;;;;;1766741;80;21736;-82
2023/04/25 00:53:32;;;;;;;30.17;22.70;;;29.00;98.00;;;;;;1760229;80;21733;-82
2023/04/25 00:56:03;;;;;;;36.58;23.87;;;29.10;97.90;;;;;;1765729;80;21281;-74
2023/04/25 00:58:35;;;;;;;31.90;24.18;;;29.10;97.80;;;;;;1732512;81;21883;-74
2023/04/25 01:01:07;;;;;;;30.40;22.75;;;29.20;97.70;;;;;;1743110;81;21198;-73
2023/04/25 01:03:42;;;;;;;111.37;27.67;;;29.20;97.20;;;;;;1751152;80;21638;-74
2023/04/25 01:06:14;;;;;;;29.15;20.68;;;29.30;96.70;;;;;;1737431;81;21587;-75
2023/04/25 01:08:45;;;;;;;26.37;21.15;;;29.30;96.70;;;;;;1772651;80;21174;-74
2023/04/25 01:11:16;;;;;;;26.70;19.77;;;29.30;96.30;;;;;;1767421;80;21095;-78
2023/04/25 01:13:47;;;;;;;26.90;21.30;;;29.40;96.00;;;;;;1754353;80;21233;-74
2023/04/25 01:16:19;;;;;;;29.85;21.90;;;29.40;95.90;;;;;;1771419;80;21459;-78
2023/04/25 01:18:51;;;;;;;28.50;21.25;;;29.50;96.00;;;;;;1773945;80;21231;-74
2023/04/25 01:21:22;;;;;;;24.82;20.35;;;29.60;95.90;;;;;;1765192;80;21194;-76
2023/04/25 01:23:54;;;;;;;24.77;20.05;;;29.60;95.80;;;;;;1765754;80;21680;-74
2023/04/25 01:26:26;;;;;;;23.83;17.98;;;29.70;95.70;;;;;;1801703;79;21154;-72
2023/04/25 01:28:57;;;;;;;24.75;17.98;;;29.70;94.60;;;;;;1760109;80;21633;-73
2023/04/25 01:31:29;;;;;;;27.40;18.60;;;29.80;94.60;;;;;;1731406;82;21800;-74
2023/04/25 01:34:01;;;;;;;26.10;17.90;;;29.90;94.80;;;;;;1738971;81;21538;-74
2023/04/25 01:36:32;;;;;;;21.27;16.60;;;30.00;94.80;;;;;;1745290;81;21229;-73
2023/04/25 01:39:04;;;;;;;22.30;16.37;;;30.00;94.20;;;;;;1749153;81;21539;-74
2023/04/25 01:41:35;;;;;;;21.70;16.97;;;30.10;93.90;;;;;;1752074;81;21170;-74
2023/04/25 01:44:06;;;;;;;21.90;17.40;;;30.20;93.90;;;;;;1747861;81;21186;-75
2023/04/25 01:46:37;;;;;;;24.87;17.60;;;30.30;94.00;;;;;;1772324;80;21123;-75
2023/04/25 01:49:09;;;;;;;21.33;16.48;;;30.40;93.80;;;;;;1748996;81;21186;-75
2023/04/25 01:51:44;;;;;;;20.72;15.43;;;30.50;93.60;;;;;;1745517;80;21597;-75
2023/04/25 01:54:15;;;;;;;23.22;16.42;;;30.60;93.30;;;;;;1723677;82;21296;-74
2023/04/25 01:56:49;;;;;;;19.90;15.83;;;30.70;92.90;;;;;;1723131;82;21171;-73
2023/04/25 01:59:21;;;;;;;23.90;15.43;;;30.70;92.30;;;;;;1755972;80;21157;-76
2023/04/25 02:01:53;;;;;;;20.25;16.17;;;30.80;91.90;;;;;;1727912;82;21191;-76
2023/04/25 02:04:24;;;;;;;23.57;16.57;;;30.90;92.10;;;;;;1754394;80;21596;-75
2023/04/25 02:06:56;;;;;;;22.22;16.75;;;31.00;92.40;;;;;;1725632;82;21153;-75
2023/04/25 02:09:27;;;;;;;24.23;16.93;;;31.10;92.30;;;;;;1750259;80;21147;-76
2023/04/25 02:11:58;;;;;;;19.25;15.08;;;31.10;92.20;;;;;;1754588;80;21145;-75
2023/04/25 02:14:38;;;;;;;22.67;17.00;;;31.30;92.00;;;;;;1728245;82;21269;-76
2023/04/25 02:17:09;;;;;;;20.30;16.30;;;31.40;91.50;;;;;;1714984;82;21165;-72
2023/04/25 02:19:40;;;;;;;20.35;15.38;;;31.50;91.10;;;;;;1719865;82;21275;-76
2023/04/25 02:22:12;;;;;;;20.45;15.88;;;31.50;91.20;;;;;;1714251;82;21200;-75
2023/04/25 02:24:44;;;;;;;21.25;15.35;;;31.60;90.30;;;;;;1722935;82;21615;-77
2023/04/25 02:27:15;;;;;;;17.42;14.83;;;31.60;90.00;;;;;;1745951;80;21711;-78
2023/04/25 02:29:47;;;;;;;22.50;15.05;;;31.70;89.50;;;;;;1723607;82;21179;-76
2023/04/25 02:32:18;;;;;;;17.62;14.03;;;31.70;90.00;;;;;;1734284;82;21214;-75
2023/04/25 02:34:49;;;;;;;17.82;15.03;;;31.70;89.00;;;;;;1748399;82;21256;-75
2023/04/25 02:37:20;;;;;;;16.52;14.33;;;31.80;87.40;;;;;;1724316;82;21765;-75
2023/04/25 02:39:51;;;;;;;19.45;14.73;;;31.90;88.00;;;;;;1722034;83;21301;-73
2023/04/25 02:42:23;;;;;;;20.23;13.68;;;31.90;88.30;;;;;;1739951;80;21170;-74
2023/04/25 02:44:56;;;;;;;14.55;12.88;;;32.10;86.80;;;;;;1721056;82;21206;-75
2023/04/25 02:47:27;;;;;;;20.55;13.40;;;32.20;86.60;;;;;;1727619;82;21676;-76
2023/04/25 02:49:59;;;;;;;16.17;12.90;;;32.30;86.10;;;;;;1738839;80;21149;-75
2023/04/25 02:52:30;;;;;;;17.35;13.75;;;32.40;86.70;;;;;;1731636;82;21641;-76
2023/04/25 02:55:02;;;;;;;19.98;15.30;;;32.50;87.20;;;;;;1721595;83;21218;-75
2023/04/25 02:57:33;;;;;;;16.82;14.25;;;32.60;86.40;;;;;;1744620;80;21520;-77
2023/04/25 03:00:05;;;;;;;17.15;13.28;;;32.70;85.60;;;;;;1752080;80;21198;-78
2023/04/25 03:02:36;;;;;;;18.60;13.43;;;32.90;83.80;;;;;;1788524;79;21080;-73
2023/04/25 03:05:08;;;;;;;19.15;13.78;;;33.00;84.00;;;;;;1790777;79;21744;-75
2023/04/25 03:07:39;;;;;;;18.52;13.70;;;33.10;83.60;;;;;;1794533;79;21175;-73
2023/04/25 03:10:11;;;;;;;15.18;13.08;;;33.20;82.60;;;;;;1783734;79;21170;-73
2023/04/25 03:12:42;;;;;;;17.12;13.08;;;33.20;81.30;;;;;;1769498;79;21196;-74
2023/04/25 03:15:13;;;;;;;20.27;13.15;;;33.40;79.70;;;;;;1789887;79;21175;-75
2023/04/25 03:17:45;;;;;;;17.62;13.13;;;33.50;80.10;;;;;;1787922;80;21181;-75
2023/04/25 03:20:16;;;;;;;17.55;13.25;;;33.50;79.10;;;;;;1788940;79;21269;-75
2023/04/25 03:22:49;;;;;;;16.87;12.23;;;33.60;79.00;;;;;;1785700;79;21172;-77
2023/04/25 03:25:23;;;;;;;12.33;10.32;;;33.70;74.10;;;;;;1787709;79;21189;-73
2023/04/25 03:27:55;;;;;;;11.60;10.50;;;33.80;67.40;;;;;;1794136;79;21598;-73
2023/04/25 03:30:26;;;;;;;11.38;10.20;;;33.90;69.70;;;;;;1787276;79;21257;-74
2023/04/25 03:33:00;;;;;;;13.55;10.75;;;34.00;65.80;;;;;;1785389;80;21167;-74
2023/04/25 03:35:32;;;;;;;13.10;11.45;;;34.10;66.10;;;;;;1788115;79;21170;-74
2023/04/25 03:38:03;;;;;;;14.25;11.33;;;34.20;65.80;;;;;;1782245;80;21148;-75
2023/04/25 03:40:35;;;;;;;11.83;10.63;;;34.30;65.10;;;;;;1790755;79;21254;-74
2023/04/25 03:43:07;;;;;;;13.40;10.65;;;34.40;65.20;;;;;;1790452;79;21131;-73
2023/04/25 03:45:38;;;;;;;14.58;11.18;;;34.40;64.40;;;;;;1788141;79;21155;-73
2023/04/25 03:48:09;;;;;;;14.03;12.00;;;34.50;63.20;;;;;;1790754;79;21589;-75
2023/04/25 03:50:40;;;;;;;12.55;11.25;;;34.50;64.90;;;;;;1794695;78;21236;-74
2023/04/25 03:53:16;;;;;;;13.90;12.15;;;34.60;65.30;;;;;;1810822;78;21244;-71
2023/04/25 03:55:51;;;;;;;14.10;12.23;;;34.60;64.00;;;;;;1806487;78;21551;-75
2023/04/25 03:58:24;;;;;;;14.07;11.68;;;34.70;62.50;;;;;;1805898;78;21201;-75
2023/04/25 04:00:55;;;;;;;14.60;12.07;;;34.70;62.70;;;;;;1809014;79;21119;-74
2023/04/25 04:03:26;;;;;;;16.23;13.10;;;34.80;62.60;;;;;;1807185;78;21226;-74
2023/04/25 04:05:59;;;;;;;13.43;11.95;;;34.80;63.40;;;;;;1808351;78;21221;-73
2023/04/25 04:08:30;;;;;;;14.63;13.13;;;34.80;63.50;;;;;;1800560;78;21162;-74
2023/04/25 04:11:02;;;;;;;14.43;12.25;;;34.80;63.40;;;;;;1768793;80;21202;-75
2023/04/25 04:13:33;;;;;;;15.60;12.10;;;34.90;63.80;;;;;;1734161;81;21231;-73
2023/04/25 04:16:04;;;;;;;13.98;12.58;;;34.90;66.00;;;;;;1758507;80;21568;-74
2023/04/25 04:18:36;;;;;;;13.55;11.68;;;34.90;66.70;;;;;;1762866;80;21580;-74
2023/04/25 04:21:07;;;;;;;14.78;12.58;;;35.00;67.30;;;;;;1755318;80;21707;-74
2023/04/25 04:23:38;;;;;;;16.00;12.13;;;35.00;67.70;;;;;;1761177;80;21294;-73
2023/04/25 04:26:11;;;;;;;14.93;12.63;;;35.00;67.90;;;;;;1765398;80;21141;-75
2023/04/25 04:28:42;;;;;;;14.07;12.65;;;35.00;67.90;;;;;;1776117;80;21216;-73
2023/04/25 04:31:16;;;;;;;17.23;12.85;;;35.10;67.60;;;;;;1793878;78;21173;-74
2023/04/25 04:33:46;;;;;;;13.22;11.80;;;35.10;68.90;;;;;;1805025;78;21217;-73
2023/04/25 04:36:21;;;;;;;12.88;11.57;;;35.10;66.80;;;;;;1800590;78;21263;-73
2023/04/25 04:38:50;;;;;;;16.35;12.65;;;35.10;66.80;;;;;;1795927;78;21239;-73
2023/04/25 04:41:22;;;;;;;15.78;13.65;;;35.10;67.90;;;;;;1799669;78;21674;-73
2023/04/25 04:43:53;;;;;;;16.27;13.60;;;35.20;66.30;;;;;;1796708;78;21134;-74
2023/04/25 04:46:24;;;;;;;16.93;12.98;;;35.20;65.90;;;;;;1792304;78;21150;-73
2023/04/25 04:48:56;;;;;;;14.43;12.93;;;35.30;66.60;;;;;;1795289;78;21670;-76
2023/04/25 04:51:27;;;;;;;19.27;12.95;;;35.30;65.40;;;;;;1805586;78;21259;-82
2023/04/25 04:54:01;;;;;;;14.28;12.37;;;35.30;66.70;;;;;;1809107;78;21899;-81
2023/04/25 04:56:34;;;;;;;14.28;12.78;;;35.30;65.30;;;;;;1797875;78;21111;-81
2023/04/25 04:59:06;;;;;;;14.73;13.15;;;35.40;66.00;;;;;;1792696;78;21159;-83
2023/04/25 05:01:37;;;;;;;15.10;13.20;;;35.40;66.60;;;;;;1799690;78;21139;-81
2023/04/25 05:04:08;;;;;;;15.43;13.83;;;35.40;67.30;;;;;;1802102;78;21199;-84
2023/04/25 05:06:40;;;;;;;15.85;12.43;;;35.40;65.60;;;;;;1798747;79;21115;-82
2023/04/25 05:09:11;;;;;;;14.30;12.35;;;35.40;66.20;;;;;;1798123;78;21125;-83
2023/04/25 05:11:42;;;;;;;15.53;13.30;;;35.40;66.90;;;;;;1795378;78;21208;-83
2023/04/25 05:14:13;;;;;;;15.63;13.55;;;35.40;65.90;;;;;;1800176;78;21183;-84
2023/04/25 05:16:44;;;;;;;15.63;12.70;;;35.50;65.50;;;;;;1805404;78;21145;-85
2023/04/25 05:19:19;;;;;;;16.20;14.03;;;35.50;65.20;;;;;;1814664;79;21229;-82
2023/04/25 05:21:50;;;;;;;17.00;13.15;;;35.60;64.90;;;;;;1821085;78;21180;-83
2023/04/25 05:24:24;;;;;;;16.77;13.80;;;35.60;64.20;;;;;;1764884;80;21637;-84
2023/04/25 05:26:55;;;;;;;17.67;13.75;;;35.60;66.10;;;;;;1780574;80;21165;-84
2023/04/25 05:29:26;;;;;;;15.08;13.38;;;35.70;66.20;;;;;;1806323;78;21150;-82
2023/04/25 05:31:58;;;;;;;16.87;13.62;;;35.80;65.70;;;;;;1815993;78;21221;-84
2023/04/25 05:34:29;;;;;;;14.13;12.73;;;35.80;63.60;;;;;;1811173;78;21193;-82
2023/04/25 05:37:00;;;;;;;15.38;13.08;;;35.80;63.10;;;;;;1782631;80;21182;-83
2023/04/25 05:39:31;;;;;;;14.63;12.85;;;35.80;64.20;;;;;;1746110;81;21323;-82
2023/04/25 05:42:03;;;;;;;16.00;13.22;;;35.80;63.90;;;;;;1768213;80;21185;-83
2023/04/25 05:44:39;;;;;;;16.30;14.43;;;35.80;64.80;;;;;;1769221;80;21126;-84
2023/04/25 05:47:08;;;;;;;15.72;13.60;;;35.80;64.40;;;;;;1735687;82;21237;-83
2023/04/25 05:49:39;;;;;;;17.10;13.75;;;35.90;64.80;;;;;;1784424;80;21510;-82
2023/04/25 05:52:10;;;;;;;14.83;12.58;;;35.90;64.90;;;;;;1803025;78;21232;-85
2023/04/25 05:54:44;;;;;;;14.85;12.95;;;36.00;65.10;;;;;;1760732;80;21163;-83
2023/04/25 05:57:25;;;;;;;17.05;13.30;;;36.00;62.90;;;;;;1735320;81;21162;-84
2023/04/25 05:59:56;;;;;;;14.80;12.82;;;36.00;64.30;;;;;;1803789;78;21178;-84
2023/04/25 06:02:27;;;;;;;15.53;13.68;;;35.90;63.10;;;;;;1759806;80;21181;-83
2023/04/25 06:04:58;;;;;;;15.93;13.60;;;36.00;61.80;;;;;;1745117;81;21217;-82
2023/04/25 06:07:33;;;;;;;15.20;13.65;;;36.00;62.80;;;;;;1806664;78;21228;-83
2023/04/25 06:10:06;;;;;;;15.25;13.62;;;35.90;62.70;;;;;;1801576;78;21190;-84
2023/04/25 06:12:38;;;;;;;15.45;13.35;;;35.90;63.20;;;;;;1791160;79;21673;-83
2023/04/25 06:15:10;;;;;;;15.03;13.43;;;35.80;63.00;;;;;;1813639;78;21213;-84
2023/04/25 06:17:42;;;;;;;20.08;14.33;;;35.80;63.20;;;;;;1793538;78;21135;-83
2023/04/25 06:20:14;;;;;;;17.55;14.13;;;35.80;63.10;;;;;;1794269;78;21765;-83
2023/04/25 06:22:45;;;;;;;16.57;13.90;;;35.80;63.60;;;;;;1799239;79;21107;-83
2023/04/25 06:25:16;;;;;;;19.32;14.15;;;35.80;63.90;;;;;;1804201;78;21150;-82
2023/04/25 06:27:47;;;;;;;16.02;14.03;;;35.80;63.40;;;;;;1789530;78;21090;-84
2023/04/25 06:30:23;;;;;;;15.85;14.25;;;35.90;63.10;;;;;;1807470;78;21292;-84
2023/04/25 06:32:56;;;;;;;20.65;14.95;;;35.90;63.20;;;;;;1794881;78;21279;-85
2023/04/25 06:35:27;;;;;;;16.40;13.75;;;36.00;62.50;;;;;;1800771;78;21185;-82
2023/04/25 06:37:59;;;;;;;18.42;14.85;;;35.90;61.30;;;;;;1802845;78;21200;-84
2023/04/25 06:40:30;;;;;;;16.87;14.23;;;35.90;62.00;;;;;;1796838;78;22493;-85
2023/04/25 06:43:01;;;;;;;16.20;14.60;;;35.80;62.20;;;;;;1799148;78;21189;-82
2023/04/25 06:45:32;;;;;;;15.58;14.00;;;35.70;61.90;;;;;;1803229;78;21102;-86
2023/04/25 06:48:03;;;;;;;15.90;14.28;;;35.70;62.70;;;;;;1792952;78;21147;-85
2023/04/25 06:50:35;;;;;;;16.87;14.40;;;35.70;63.00;;;;;;1813418;78;21328;-84
2023/04/25 06:53:08;;;;;;;16.55;14.85;;;35.70;62.80;;;;;;1805957;78;21225;-85
2023/04/25 06:55:39;;;;;;;16.17;13.93;;;35.70;63.20;;;;;;1784372;79;21167;-85
2023/04/25 06:58:10;;;;;;;16.40;14.50;;;35.70;63.40;;;;;;1781345;79;21672;-84
2023/04/25 07:00:41;;;;;;;16.42;14.28;;;35.60;63.30;;;;;;1781962;78;21705;-84
2023/04/25 07:03:13;;;;;;;16.23;14.55;;;35.70;63.70;;;;;;1795774;79;21142;-85
2023/04/25 07:05:45;;;;;;;15.10;13.50;;;35.60;63.10;;;;;;1792163;79;21107;-85
2023/04/25 07:08:16;;;;;;;17.55;14.05;;;35.70;63.10;;;;;;1750158;82;21143;-84
2023/04/25 07:10:48;;;;;;;16.45;14.63;;;35.60;63.50;;;;;;1787607;79;21173;-83
2023/04/25 07:13:19;;;;;;;16.55;14.25;;;35.60;63.10;;;;;;1791919;79;21142;-85
2023/04/25 07:15:50;;;;;;;16.42;13.83;;;35.60;62.70;;;;;;1785761;79;21270;-78
2023/04/25 07:18:23;;;;;;;17.98;15.08;;;35.60;62.90;;;;;;1789023;79;21165;-73
2023/04/25 07:20:54;;;;;;;15.98;14.38;;;35.60;63.50;;;;;;1753224;80;21237;-75
2023/04/25 07:23:26;;;;;;;16.60;14.87;;;35.70;62.90;;;;;;1792253;78;21115;-76
2023/04/25 07:25:57;;;;;;;16.17;14.47;;;35.70;63.20;;;;;;1781935;79;21220;-74
2023/04/25 07:28:28;;;;;;;15.80;14.20;;;35.70;63.70;;;;;;1789297;79;21162;-74
2023/04/25 07:31:00;;;;;;;17.07;14.80;;;35.70;62.60;;;;;;1791513;78;21772;-74
2023/04/25 07:33:37;;;;;;;17.60;14.85;;;35.80;62.20;;;;;;1789795;79;21644;-73
2023/04/25 07:36:09;;;;;;;16.87;15.08;;;35.80;62.80;;;;;;1787878;79;21235;-73
2023/04/25 07:38:40;;;;;;;16.57;14.87;;;35.80;63.30;;;;;;1787824;79;21616;-75
2023/04/25 07:41:11;;;;;;;18.67;15.05;;;35.80;62.50;;;;;;1788926;79;21096;-77
2023/04/25 07:43:43;;;;;;;17.80;15.40;;;35.80;62.30;;;;;;1789091;79;21861;-76
2023/04/25 07:46:14;;;;;;;16.77;15.05;;;35.80;61.90;;;;;;1787294;79;21694;-76
2023/04/25 07:48:46;;;;;;;16.48;14.78;;;35.80;61.50;;;;;;1786863;78;21162;-75
2023/04/25 07:51:19;;;;;;;17.32;15.53;;;35.80;62.40;;;;;;1785536;80;21079;-74
2023/04/25 07:53:49;;;;;;;16.52;14.80;;;35.80;62.50;;;;;;1794315;78;21162;-76
2023/04/25 07:56:20;;;;;;;17.85;15.95;;;35.70;62.70;;;;;;1795766;78;21150;-77
2023/04/25 07:58:52;;;;;;;16.90;15.23;;;35.70;61.90;;;;;;1793662;79;21664;-76
2023/04/25 08:01:23;;;;;;;19.10;15.88;;;35.70;62.70;;;;;;1798466;78;21290;-75
2023/04/25 08:03:55;;;;;;;16.75;14.98;;;35.70;62.40;;;;;;1794942;78;21681;-75
2023/04/25 08:06:27;;;;;;;17.35;15.65;;;35.70;61.50;;;;;;1804297;78;21696;-75
2023/04/25 08:08:59;;;;;;;19.48;16.50;;;35.70;62.40;;;;;;1791883;78;21582;-76
2023/04/25 08:11:30;;;;;;;20.00;16.23;;;35.70;61.60;;;;;;1795491;78;21188;-74
2023/04/25 08:14:01;;;;;;;19.85;16.32;;;35.60;61.60;;;;;;1800163;78;21701;-76
2023/04/25 08:16:32;;;;;;;21.75;16.80;;;35.60;62.50;;;;;;1800551;78;21169;-74
2023/04/25 08:19:04;;;;;;;17.92;16.02;;;35.60;62.60;;;;;;1794688;78;21190;-77
2023/04/25 08:21:36;;;;;;;19.00;16.32;;;35.60;63.20;;;;;;1793363;78;21643;-75
2023/04/25 08:24:08;;;;;;;17.25;15.40;;;35.60;63.20;;;;;;1794108;79;21174;-78
2023/04/25 08:26:40;;;;;;;18.62;16.62;;;35.60;62.60;;;;;;1789082;78;21248;-74
2023/04/25 08:29:12;;;;;;;17.98;16.15;;;35.60;62.60;;;;;;1770292;80;21166;-76
2023/04/25 08:31:43;;;;;;;19.90;16.17;;;35.60;61.70;;;;;;1732149;81;21162;-75
2023/04/25 08:34:15;;;;;;;18.60;16.73;;;35.60;61.30;;;;;;1801677;78;21154;-76
2023/04/25 08:36:46;;;;;;;18.15;16.35;;;35.50;62.00;;;;;;1770015;80;21180;-75
2023/04/25 08:39:17;;;;;;;17.95;15.98;;;35.50;62.20;;;;;;1726400;81;21152;-76
2023/04/25 08:41:49;;;;;;;19.90;17.77;;;35.40;62.10;;;;;;1760083;80;21266;-76
2023/04/25 08:44:21;;;;;;;18.70;16.50;;;35.40;62.20;;;;;;1763316;80;21232;-72
2023/04/25 08:46:54;;;;;;;18.55;16.75;;;35.40;62.00;;;;;;1751151;80;21176;-75
2023/04/25 08:49:26;;;;;;;19.17;17.17;;;35.40;62.10;;;;;;1785492;80;21602;-75
2023/04/25 08:52:00;;;;;;;18.65;15.98;;;35.30;62.60;;;;;;1764653;80;21158;-77
2023/04/25 08:54:33;;;;;;;18.85;16.85;;;35.30;62.70;;;;;;1787537;78;21158;-76
2023/04/25 08:57:06;;;;;;;21.65;16.87;;;35.30;62.90;;;;;;1802801;78;21134;-75
2023/04/25 08:59:39;;;;;;;19.15;16.60;;;35.20;62.80;;;;;;1812446;78;21546;-77
2023/04/25 09:02:14;;;;;;;17.45;15.75;;;35.10;62.60;;;;;;1789604;78;21154;-76
2023/04/25 09:04:44;;;;;;;19.07;16.50;;;35.10;63.30;;;;;;1806746;78;21118;-76
2023/04/25 09:07:18;;;;;;;21.75;17.30;;;35.10;63.70;;;;;;1795332;78;21273;-76
2023/04/25 09:09:48;;;;;;;18.55;16.60;;;35.00;63.90;;;;;;1796973;78;22027;-75
2023/04/25 09:12:23;;;;;;;18.00;16.20;;;35.00;64.00;;;;;;1756299;80;21174;-75
2023/04/25 09:15:06;;;;;;;19.80;17.80;;;34.90;64.30;;;;;;1806687;79;21656;-76
2023/04/25 09:17:40;;;;;;;18.85;16.65;;;34.90;64.10;;;;;;1787729;79;21268;-74
2023/04/25 09:20:14;;;;;;;19.12;16.52;;;34.90;64.30;;;;;;1771660;80;21100;-75
2023/04/25 09:22:46;;;;;;;18.23;16.30;;;34.80;64.40;;;;;;1728805;82;21749;-76
2023/04/25 09:25:19;;;;;;;19.35;17.25;;;34.80;64.90;;;;;;1737679;82;21107;-75
2023/04/25 09:27:55;;;;;;;22.30;17.20;;;34.80;66.10;;;;;;1756755;80;21187;-74
2023/04/25 09:30:34;;;;;;;20.43;16.42;;;34.80;65.10;;;;;;1758106;80;22049;-75
2023/04/25 09:33:10;;;;;;;18.85;16.60;;;34.70;65.50;;;;;;1789632;79;21174;-74
2023/04/25 09:35:44;;;;;;;19.60;16.45;;;34.70;65.90;;;;;;1793850;79;22047;-76
2023/04/25 09:38:18;;;;;;;17.80;15.88;;;34.70;65.90;;;;;;1791403;79;21216;-74
2023/04/25 09:40:52;;;;;;;;;;;34.70;65.90;;;;;;1789224;79;21237;-74
2023/04/25 09:43:26;;;;;;;20.85;14.95;;;34.70;66.20;;;;;;1791876;78;20405;-76
2023/04/25 09:46:00;;;;;;;17.70;15.88;;;34.70;66.50;;;;;;1790009;78;21163;-76
2023/04/25 09:51:25;;;;;;;19.77;16.17;;;34.70;66.10;;;;;;1820656;78;21610;-77
2023/04/25 09:53:56;;;;;;;18.92;16.25;;;34.70;66.00;;;;;;1778426;79;21190;-75
2023/04/25 09:56:29;;;;;;;17.80;15.88;;;34.70;65.50;;;;;;1774432;79;21691;-75
2023/04/25 09:59:01;;;;;;;20.30;16.80;;;34.70;65.50;;;;;;1823041;78;21122;-73
2023/04/25 10:01:32;;;;;;;21.70;17.32;;;34.70;66.00;;;;;;1820579;78;21186;-74
2023/04/25 10:04:06;;;;;;;17.67;15.80;;;34.70;66.20;;;;;;1825643;77;21226;-81
2023/04/25 10:06:41;;;;;;;18.55;16.25;;;34.70;66.20;;;;;;1824585;78;21626;-83
2023/04/25 10:09:13;;;;;;;20.65;17.32;;;34.70;65.40;;;;;;1831549;78;21177;-81
2023/04/25 10:11:46;;;;;;;18.85;16.73;;;34.70;65.90;;;;;;1831114;78;21725;-84
2023/04/25 10:14:18;;;;;;;23.22;16.70;;;34.60;66.10;;;;;;1824118;77;21811;-84
2023/04/25 10:16:49;;;;;;;19.07;16.80;;;34.60;65.80;;;;;;1809663;77;21205;-83
2023/04/25 10:19:20;;;;;;;18.73;16.73;;;34.60;65.00;;;;;;1817880;77;21068;-82
2023/04/25 10:21:54;;;;;;;20.23;16.82;;;34.60;65.10;;;;;;1824394;77;21100;-82
2023/04/25 10:24:25;;;;;;;18.95;16.95;;;34.60;65.10;;;;;;1804885;78;21612;-82
2023/04/25 10:26:58;;;;;;;19.77;17.67;;;34.50;65.40;;;;;;1819923;77;21219;-83
2023/04/25 10:29:29;;;;;;;19.32;16.93;;;34.50;65.00;;;;;;1804267;79;21076;-82
2023/04/25 10:32:00;;;;;;;28.67;17.75;;;34.50;65.60;;;;;;1766167;81;21592;-81
2023/04/25 10:34:43;;;;;;;21.62;16.50;;;34.50;65.50;;;;;;1745642;81;21205;-85
2023/04/25 10:37:14;;;;;;;18.65;16.73;;;34.40;65.60;;;;;;1768562;80;21654;-82
2023/04/25 10:39:46;;;;;;;20.60;16.82;;;34.40;65.30;;;;;;1775250;79;21881;-83
2023/04/25 10:42:18;;;;;;;20.02;16.40;;;34.40;65.60;;;;;;1785936;79;21119;-83
2023/04/25 10:45:06;;;;;;;19.67;17.25;;;34.40;65.70;;;;;;1772591;79;21730;-83
2023/04/25 10:47:39;;;;;;;20.72;17.23;;;34.40;66.00;;;;;;1774171;79;21250;-81
2023/04/25 10:50:11;;;;;;;19.82;17.23;;;34.30;66.30;;;;;;1828452;76;21151;-84
2023/04/25 10:52:42;;;;;;;20.48;17.37;;;34.30;66.30;;;;;;1832717;77;21674;-83
2023/04/25 10:55:13;;;;;;;20.32;17.55;;;34.30;66.20;;;;;;1817012;77;21204;-83
2023/04/25 10:57:48;;;;;;;19.75;17.55;;;34.20;66.30;;;;;;1818692;77;21162;-83
2023/04/25 11:00:21;;;;;;;20.50;18.30;;;34.20;66.50;;;;;;1817547;78;21189;-84
2023/04/25 11:02:56;;;;;;;20.70;17.53;;;34.20;66.90;;;;;;1814870;77;21194;-82
2023/04/25 11:05:39;;;;;;;19.40;17.30;;;34.20;66.90;;;;;;1814533;78;21182;-81
2023/04/25 11:08:14;;;;;;;19.12;17.10;;;34.20;67.20;;;;;;1813125;77;21130;-82
2023/04/25 11:10:46;;;;;;;22.48;18.32;;;34.10;67.30;;;;;;1815808;78;21610;-82
2023/04/25 11:13:20;;;;;;;21.68;18.00;;;34.10;67.40;;;;;;1768925;79;21087;-81
2023/04/25 11:15:55;;;;;;;24.72;18.82;;;34.10;67.70;;;;;;1820250;78;21144;-82
2023/04/25 11:18:28;;;;;;;20.00;17.35;;;34.00;67.80;;;;;;1812372;77;21205;-82
2023/04/25 11:20:59;;;;;;;19.30;16.77;;;34.00;68.20;;;;;;1773289;79;21256;-79
2023/04/25 11:23:32;;;;;;;22.48;18.12;;;34.00;68.10;;;;;;1813557;77;21866;-80
2023/04/25 11:26:03;;;;;;;26.25;20.23;;;34.00;68.40;;;;;;1766594;79;21115;-81
2023/04/25 11:28:35;;;;;;;30.82;21.10;;;34.00;68.70;;;;;;1818472;77;22196;-81
2023/04/25 11:31:06;;;;;;;23.15;20.12;;;33.90;68.70;;;;;;1806701;77;21163;-81
2023/04/25 11:33:37;;;;;;;27.95;21.80;;;33.90;69.00;;;;;;1831815;77;21095;-82
2023/04/25 11:36:09;;;;;;;22.62;20.08;;;33.90;69.40;;;;;;1800327;79;21182;-81
2023/04/25 11:38:40;;;;;;;22.13;18.92;;;33.90;69.80;;;;;;1803190;78;21237;-78
2023/04/25 11:41:11;;;;;;;23.22;19.90;;;33.90;69.90;;;;;;1810380;79;21183;-77
2023/04/25 11:43:44;;;;;;;24.87;19.48;;;33.90;70.00;;;;;;1806748;77;21169;-76
2023/04/25 11:46:15;;;;;;;24.77;18.75;;;33.80;70.10;;;;;;1776466;79;21221;-76
2023/04/25 11:48:47;;;;;;;25.08;19.27;;;33.80;70.10;;;;;;1773163;79;21693;-76
2023/04/25 11:51:18;;;;;;;22.22;18.55;;;33.80;70.50;;;;;;1800461;78;21772;-77
2023/04/25 11:53:50;;;;;;;25.23;19.57;;;33.80;70.70;;;;;;1834429;78;21580;-77
2023/04/25 11:56:23;;;;;;;27.70;19.37;;;33.80;71.00;;;;;;1844173;77;21075;-77
2023/04/25 11:59:02;;;;;;;29.35;19.40;;;33.70;71.20;;;;;;1847786;77;21204;-77
2023/04/25 12:01:36;;;;;;;26.55;20.77;;;33.70;71.50;;;;;;1842096;78;21104;-78
2023/04/25 12:04:19;;;;;;;25.05;20.80;;;33.70;72.50;;;;;;1841892;78;21080;-77
2023/04/25 12:06:55;;;;;;;25.20;20.20;;;33.70;71.70;;;;;;1839182;76;21173;-77
2023/04/25 12:09:32;;;;;;;25.05;19.95;;;33.70;71.90;;;;;;1840029;77;21613;-78
2023/04/25 12:12:07;;;;;;;;;;;33.70;72.10;;;;;;1842280;77;21266;-76
2023/04/25 12:14:36;;;;;;;24.23;20.27;;;33.60;71.50;;;;;;1841961;77;20161;-78
2023/04/25 12:17:07;;;;;;;25.88;20.05;;;33.60;71.70;;;;;;1796645;78;21585;-78
2023/04/25 12:19:40;;;;;;;24.30;19.77;;;33.60;71.70;;;;;;1841695;77;21184;-77
2023/04/25 12:22:25;;;;;;;23.60;19.27;;;33.60;71.70;;;;;;1855838;77;21161;-78
2023/04/25 12:24:58;;;;;;;24.65;18.48;;;33.60;71.70;;;;;;1812467;78;21579;-79
2023/04/25 12:27:28;;;;;;;22.85;19.25;;;33.60;71.80;;;;;;1778381;79;21168;-79
2023/04/25 12:30:00;;;;;;;23.80;19.30;;;33.50;71.80;;;;;;1811886;78;21174;-79
2023/04/25 12:32:31;;;;;;;24.82;19.77;;;33.50;71.90;;;;;;1845044;76;21205;-78
2023/04/25 12:35:03;;;;;;;22.52;19.60;;;33.50;71.90;;;;;;1838969;76;21256;-78
2023/04/25 12:37:35;;;;;;;23.62;19.32;;;33.50;72.00;;;;;;1842639;76;21601;-80
2023/04/25 12:40:08;;;;;;;24.30;20.57;;;33.50;72.00;;;;;;1796178;79;21446;-79
2023/04/25 12:42:39;;;;;;;24.92;20.95;;;33.50;72.20;;;;;;1804290;79;21174;-80
2023/04/25 12:45:10;;;;;;;24.35;20.60;;;33.50;72.50;;;;;;1805451;78;21174;-79
2023/04/25 12:47:43;;;;;;;29.85;22.17;;;33.40;72.90;;;;;;1817912;78;21246;-79
2023/04/25 12:50:14;;;;;;;25.25;21.55;;;33.40;72.80;;;;;;1803973;79;22240;-81
2023/04/25 12:52:46;;;;;;;24.67;20.35;;;33.40;72.80;;;;;;1842115;77;21186;-80
2023/04/25 12:55:17;;;;;;;25.80;21.50;;;33.40;72.80;;;;;;1833015;77;22551;-79